^^
Datos históricos de la estación: Murcia-Puente Tocinos
Diario Informe para Diciembre 26, 2019 Unidades:  Métrico    Ingés   Ambas
Diario Semanal Mensual Anual
  Máxima: Mínima: Promedio:
Temperatura: 24.1 °C 10.7 °C 16.8 °C
Punto de rocio: 11 °C 1.7 °C 5.9 °C
Humedad: 78% 30% 51%
Velocidad viento: 19.8km/h 0km/h 8.8km/h
Racha viento: 33.8km/h - -
Viento- - SSO
Presión: 1028.2 hPa 1021.3 hPa -
Precipitación: 0.0 mm    
 
 
Tabla de datos para Diciembre 26, 2019
Hora Temperatura Punto de rocio Presión Viento Velocidad viento Racha viento Humedad Intensidad lluvia(por hora) Nubes
00:04 11.2 °C 6.8 °C 1022.7 hPa SSO 8.6 km/h 14.5 km/h 74.6% 0.0 mm
00:09 11.2 °C 6.7 °C 1022.7 hPa SSO 8.7 km/h 14.8 km/h 74.1% 0.0 mm
00:14 11.2 °C 6.7 °C 1022.6 hPa SSO 8.7 km/h 14.8 km/h 74% 0.0 mm
00:19 11.2 °C 6.7 °C 1022.6 hPa SO 8.7 km/h 13.7 km/h 74% 0.0 mm
00:24 11.2 °C 6.7 °C 1022.6 hPa SO 8.7 km/h 14.5 km/h 74% 0.0 mm
00:29 11.2 °C 6.7 °C 1022.6 hPa SO 8.7 km/h 11.3 km/h 74% 0.0 mm
00:34 11.2 °C 6.7 °C 1022.6 hPa SO 6.2 km/h 8 km/h 74% 0.0 mm
00:39 11.1 °C 6.6 °C 1022.6 hPa SO 4.7 km/h 8 km/h 74% 0.0 mm
00:44 11.1 °C 6.6 °C 1022.5 hPa OSO 3.8 km/h 8 km/h 74% 0.0 mm
00:49 11.1 °C 6.8 °C 1022.5 hPa OSO 3.2 km/h 7.6 km/h 74.9% 0.0 mm
00:54 11 °C 6.7 °C 1022.5 hPa SO 3.6 km/h 11.1 km/h 75% 0.0 mm
00:59 10.9 °C 6.7 °C 1022.3 hPa SO 3.9 km/h 14.8 km/h 75% 0.0 mm
01:04 11.1 °C 6.7 °C 1022.3 hPa SO 6.8 km/h 14.5 km/h 74.4% 0.0 mm
01:09 11.2 °C 6.7 °C 1022.3 hPa SO 8.4 km/h 12.9 km/h 74% 0.0 mm
01:14 11.3 °C 6.6 °C 1022.1 hPa SSO 8.4 km/h 16.7 km/h 72.9% 0.0 mm
01:19 11.7 °C 6.7 °C 1022.1 hPa SSO 8.4 km/h 16.4 km/h 71.2% 0.0 mm
01:24 11.9 °C 6.5 °C 1022.1 hPa SO 9.3 km/h 16.7 km/h 69.5% 0.0 mm
01:29 11.9 °C 6.3 °C 1022.0 hPa SO 10 km/h 14.8 km/h 68.7% 0.0 mm
01:34 11.9 °C 6.2 °C 1022.0 hPa SO 9.2 km/h 14.5 km/h 68% 0.0 mm
01:39 11.8 °C 6.1 °C 1022.0 hPa SO 8.7 km/h 14.8 km/h 68% 0.0 mm
01:44 11.7 °C 6 °C 1021.9 hPa SO 8 km/h 14.5 km/h 67.8% 0.0 mm
01:49 11.8 °C 5.9 °C 1021.9 hPa SO 7.6 km/h 14.8 km/h 67% 0.0 mm
01:54 11.8 °C 5.9 °C 1021.9 hPa SO 8.8 km/h 15.6 km/h 67% 0.0 mm
01:59 11.8 °C 5.9 °C 1021.9 hPa SSO 9.5 km/h 16.7 km/h 66.8% 0.0 mm
02:04 12 °C 5.8 °C 1021.9 hPa SSO 9.8 km/h 16.1 km/h 66% 0.0 mm
02:09 12.1 °C 5.8 °C 1021.9 hPa SSO 10 km/h 14.5 km/h 65.4% 0.0 mm
02:14 12.2 °C 5.8 °C 1021.9 hPa Sur 8.5 km/h 11.3 km/h 65% 0.0 mm
02:19 12 °C 5.7 °C 1021.9 hPa SSE 7.6 km/h 11.3 km/h 65.1% 0.0 mm
02:24 11.8 °C 5.7 °C 1021.9 hPa Sur 6.9 km/h 9.7 km/h 66% 0.0 mm
02:29 11.8 °C 5.6 °C 1021.9 hPa Sur 6.5 km/h 10 km/h 65.6% 0.0 mm
02:34 12.1 °C 5.4 °C 1021.9 hPa SSO 6.1 km/h 13.7 km/h 63.8% 0.0 mm
02:39 12.5 °C 5.3 °C 1021.9 hPa SSO 5.8 km/h 14.8 km/h 61.3% 0.0 mm
02:44 12.9 °C 5.1 °C 1021.9 hPa SSO 8.1 km/h 15.6 km/h 59.3% 0.0 mm
02:49 13.1 °C 5 °C 1021.9 hPa SSO 9.5 km/h 16.1 km/h 58.1% 0.0 mm
02:54 13.1 °C 4.8 °C 1021.9 hPa SO 9 km/h 14.5 km/h 57.2% 0.0 mm
02:59 13.2 °C 4.8 °C 1021.9 hPa SO 8.7 km/h 12.9 km/h 57% 0.0 mm
03:04 13.2 °C 4.6 °C 1021.9 hPa SO 7.5 km/h 11.9 km/h 56% 0.0 mm
03:09 13.2 °C 4.6 °C 1021.9 hPa SO 6.9 km/h 13 km/h 56% 0.0 mm
03:14 13.1 °C 4.5 °C 1021.7 hPa SO 6.9 km/h 12.9 km/h 56% 0.0 mm
03:19 13.2 °C 4.6 °C 1021.7 hPa SO 6.9 km/h 11.3 km/h 55.8% 0.0 mm
03:24 13.2 °C 4.3 °C 1021.7 hPa SO 6.6 km/h 13 km/h 55% 0.0 mm
03:29 13.2 °C 4.5 °C 1021.7 hPa OSO 6.5 km/h 12.9 km/h 55.6% 0.0 mm
03:34 12.8 °C 4.6 °C 1021.7 hPa OSO 7.8 km/h 12.9 km/h 57.4% 0.0 mm
03:39 12.2 °C 4.6 °C 1021.7 hPa OSO 8.7 km/h 11.1 km/h 59.7% 0.0 mm
03:44 11.7 °C 4.7 °C 1021.6 hPa Oeste 7.6 km/h 11.3 km/h 62.2% 0.0 mm
03:49 11.2 °C 4.7 °C 1021.6 hPa Oeste 6.9 km/h 9.7 km/h 64.5% 0.0 mm
03:54 10.8 °C 4.7 °C 1021.7 hPa OSO 6.3 km/h 9.7 km/h 66.1% 0.0 mm
03:59 10.7 °C 4.8 °C 1021.7 hPa SO 5.8 km/h 11.9 km/h 66.6% 0.0 mm
04:04 10.9 °C 4.6 °C 1021.7 hPa SO 6.2 km/h 13 km/h 65.2% 0.0 mm
04:09 11.2 °C 4.5 °C 1021.7 hPa OSO 6.5 km/h 13 km/h 63.7% 0.0 mm
04:14 11.3 °C 4.5 °C 1021.7 hPa OSO 6.5 km/h 9.7 km/h 63% 0.0 mm
04:19 11.5 °C 4.3 °C 1021.7 hPa SSO 6.5 km/h 14.8 km/h 61.2% 0.0 mm
04:24 11.9 °C 4.2 °C 1021.7 hPa OSO 6.5 km/h 14.5 km/h 59.2% 0.0 mm
04:29 12.1 °C 4.2 °C 1021.6 hPa SO 6.5 km/h 8.4 km/h 58.5% 0.0 mm
04:34 12.3 °C 4 °C 1021.6 hPa SO 5.4 km/h 14.8 km/h 57% 0.0 mm
04:39 12.7 °C 3.8 °C 1021.6 hPa SSO 4.7 km/h 20.9 km/h 54.8% 0.0 mm
04:44 13.2 °C 3.6 °C 1021.4 hPa SO 8.6 km/h 20.9 km/h 52.5% 0.0 mm
04:49 13.3 °C 3.5 °C 1021.4 hPa SSO 11.1 km/h 20.9 km/h 51.4% 0.0 mm
04:54 13.4 °C 3.4 °C 1021.4 hPa SSO 10.4 km/h 18.5 km/h 51% 0.0 mm
04:59 13.4 °C 3.3 °C 1021.4 hPa SSO 10 km/h 19.3 km/h 50.5% 0.0 mm
05:04 13.6 °C 3.2 °C 1021.4 hPa SSO 11.3 km/h 22.2 km/h 49.5% 0.0 mm
05:09 13.8 °C 3.1 °C 1021.4 hPa SSO 11.9 km/h 22.5 km/h 48.3% 0.0 mm
05:14 13.9 °C 3.1 °C 1021.4 hPa SSO 13 km/h 20.4 km/h 48% 0.0 mm
05:19 14 °C 2.8 °C 1021.4 hPa SSO 13.7 km/h 20.9 km/h 47.1% 0.0 mm
05:24 14.1 °C 2.9 °C 1021.4 hPa SO 12.6 km/h 16.7 km/h 47% 0.0 mm
05:29 14.1 °C 2.9 °C 1021.4 hPa SSO 11.9 km/h 18.5 km/h 46.7% 0.0 mm
05:34 14.2 °C 2.7 °C 1021.4 hPa SSO 11.4 km/h 22 km/h 45.8% 0.0 mm
05:39 14.3 °C 2.5 °C 1021.4 hPa SSO 11.1 km/h 24.1 km/h 45% 0.0 mm
05:44 14.3 °C 2.5 °C 1021.3 hPa SSO 12.6 km/h 24.1 km/h 45% 0.0 mm
05:49 14.4 °C 2.6 °C 1021.3 hPa SSO 13.7 km/h 20.9 km/h 45% 0.0 mm
05:54 14.4 °C 2.6 °C 1021.6 hPa SSO 12.8 km/h 20.9 km/h 45% 0.0 mm
05:59 14.5 °C 2.6 °C 1021.6 hPa SSO 12.2 km/h 20.9 km/h 44.7% 0.0 mm
06:04 14.4 °C 2.6 °C 1021.6 hPa SSO 10.9 km/h 19.3 km/h 45% 0.0 mm
06:09 14.2 °C 2.6 °C 1021.8 hPa SSO 10.3 km/h 20.4 km/h 45.6% 0.0 mm
06:14 14.1 °C 2.6 °C 1021.8 hPa SSO 11.3 km/h 20.9 km/h 45.7% 0.0 mm
06:19 14.2 °C 2.4 °C 1021.8 hPa SSO 11.9 km/h 20.4 km/h 45% 0.0 mm
06:24 14.3 °C 2.4 °C 1021.8 hPa SSO 12.6 km/h 22.2 km/h 44.6% 0.0 mm
06:29 14.5 °C 2.3 °C 1021.8 hPa SSO 13 km/h 24.5 km/h 43.7% 0.0 mm
06:34 14.9 °C 2.3 °C 1021.8 hPa SSO 14.6 km/h 24.1 km/h 42.4% 0.0 mm
06:39 15.2 °C 2.3 °C 1021.8 hPa SSO 15.6 km/h 22.5 km/h 41.9% 0.0 mm
06:44 15.2 °C 2 °C 1021.8 hPa SO 14 km/h 22.5 km/h 41% 0.0 mm
06:49 15.2 °C 2.2 °C 1021.8 hPa SO 13 km/h 22.5 km/h 41.8% 0.0 mm
06:54 15 °C 2.2 °C 1021.9 hPa SSO 13 km/h 23.7 km/h 42% 0.0 mm
06:59 15 °C 2.2 °C 1021.9 hPa SSO 13 km/h 24.1 km/h 42% 0.0 mm
07:04 15 °C 2.2 °C 1021.9 hPa SSO 14.2 km/h 22.5 km/h 42% 0.0 mm
07:09 15 °C 2.2 °C 1021.9 hPa SSO 14.8 km/h 27.8 km/h 42% 0.0 mm
07:14 14.9 °C 2.1 °C 1021.9 hPa SSO 15.3 km/h 27.4 km/h 42% 0.0 mm
07:19 14.8 °C 2 °C 1021.9 hPa SSO 15.6 km/h 24.1 km/h 42% 0.0 mm
07:24 14.9 °C 2.1 °C 1022.0 hPa SSO 16.1 km/h 25.9 km/h 42% 0.0 mm
07:29 15.2 °C 2 °C 1022.0 hPa SSO 16.4 km/h 25.7 km/h 41% 0.0 mm
07:34 15.4 °C 1.9 °C 1022.0 hPa SSO 16.4 km/h 24.1 km/h 40.1% 0.0 mm
07:39 15.7 °C 1.8 °C 1022.0 hPa SSO 16.4 km/h 25.1 km/h 39.1% 0.0 mm
07:44 16.1 °C 1.8 °C 1021.9 hPa SO 16.9 km/h 30.6 km/h 38.2% 0.0 mm
07:49 16.4 °C 1.7 °C 1021.9 hPa SSO 17.2 km/h 30.6 km/h 37.3% 0.0 mm
07:54 16.6 °C 1.8 °C 1022.0 hPa SSO 16.7 km/h 30.6 km/h 37% 0.0 mm
07:59 16.6 °C 1.8 °C 1022.0 hPa SSO 16.4 km/h 33.3 km/h 37% 0.0 mm
08:04 16.6 °C 1.8 °C 1022.0 hPa SO 18.7 km/h 33.8 km/h 37% 0.0 mm
08:09 16.4 °C 1.7 °C 1022.0 hPa SSO 19.8 km/h 30.6 km/h 37% 0.0 mm
08:14 16.3 °C 1.9 °C 1022.0 hPa SO 18.2 km/h 27.4 km/h 37.8% 0.0 mm
08:19 16.2 °C 1.9 °C 1022.0 hPa SSO 17.2 km/h 24.1 km/h 38% 0.0 mm
08:24 16.2 °C 1.8 °C 1022.3 hPa SSO 12.8 km/h 19.8 km/h 38% 0.0 mm
08:29 16.2 °C 1.8 °C 1022.3 hPa SSO 10.3 km/h 20.4 km/h 38% 0.0 mm
08:34 16.2 °C 1.8 °C 1022.3 hPa SO 9.8 km/h 20.9 km/h 38% 0.0 mm
08:39 16.3 °C 1.9 °C 1022.5 hPa SSO 9.5 km/h 18 km/h 38% 0.0 mm
08:44 16.3 °C 1.8 °C 1022.5 hPa SSO 10 km/h 19.8 km/h 37.4% 0.0 mm
08:49 16.6 °C 1.8 °C 1022.5 hPa SSO 10.3 km/h 22.2 km/h 37% 0.0 mm
08:54 16.7 °C 1.9 °C 1022.7 hPa SSO 12 km/h 22.5 km/h 37% 0.0 mm
08:59 16.7 °C 1.9 °C 1022.7 hPa SO 13 km/h 22.2 km/h 37% 0.0 mm
09:04 16.8 °C 2 °C 1022.7 hPa SSO 13.7 km/h 22.5 km/h 37% 0.0 mm
09:09 16.8 °C 2 °C 1022.9 hPa SSO 14 km/h 20.9 km/h 37% 0.0 mm
09:14 16.8 °C 2.1 °C 1022.9 hPa SSO 13.8 km/h 20.9 km/h 37% 0.0 mm
09:19 16.9 °C 2.1 °C 1022.9 hPa SSO 13.7 km/h 22.2 km/h 37% 0.0 mm
09:24 16.8 °C 2.3 °C 1023.1 hPa SSO 14.3 km/h 24.5 km/h 37.7% 0.0 mm
09:29 16.7 °C 2.3 °C 1023.1 hPa SSO 14.8 km/h 25.9 km/h 38% 0.0 mm
09:34 16.7 °C 2.4 °C 1023.1 hPa SSO 14.3 km/h 25.9 km/h 38.2% 0.0 mm
09:39 16.7 °C 2.7 °C 1023.3 hPa SSO 14 km/h 25.7 km/h 39% 0.0 mm
09:44 16.7 °C 2.7 °C 1023.3 hPa SSO 15.3 km/h 22.5 km/h 39% 0.0 mm
09:49 16.9 °C 2.7 °C 1023.3 hPa SO 16.1 km/h 26.2 km/h 38.6% 0.0 mm
09:54 17.2 °C 2.6 °C 1023.5 hPa SO 15.3 km/h 25.9 km/h 37.6% 0.0 mm
09:59 17.6 °C 2.7 °C 1023.5 hPa SO 14.8 km/h 26.2 km/h 37% 0.0 mm
10:04 17.8 °C 2.9 °C 1023.5 hPa SSO 14.8 km/h 25.7 km/h 37% 0.0 mm
10:09 17.7 °C 3.1 °C 1023.7 hPa SSO 14.8 km/h 20.9 km/h 37.9% 0.0 mm
10:14 17.6 °C 3.2 °C 1023.7 hPa SSO 14.1 km/h 22.5 km/h 38.2% 0.0 mm
10:19 17.6 °C 3.4 °C 1023.7 hPa SO 13.7 km/h 22.5 km/h 38.8% 0.0 mm
10:24 17.7 °C 3.4 °C 1023.7 hPa SO 12.8 km/h 20.4 km/h 38.4% 0.0 mm
10:29 18 °C 3.2 °C 1023.7 hPa SO 12.2 km/h 20.9 km/h 37.5% 0.0 mm
10:34 18.2 °C 3.3 °C 1023.7 hPa SSO 12.2 km/h 19.3 km/h 37% 0.0 mm
10:39 18.4 °C 3.2 °C 1023.9 hPa SSO 12.2 km/h 19.3 km/h 36.4% 0.0 mm
10:44 18.7 °C 3.3 °C 1023.9 hPa SO 10.8 km/h 19.3 km/h 36% 0.0 mm
10:49 18.8 °C 3.5 °C 1023.9 hPa Sur 10 km/h 16.7 km/h 36% 0.0 mm
10:54 19 °C 3.6 °C 1024.0 hPa Sur 9.2 km/h 16.1 km/h 36% 0.0 mm
10:59 19.1 °C 3.7 °C 1024.0 hPa SSO 8.7 km/h 18.5 km/h 36% 0.0 mm
11:04 19.1 °C 3.9 °C 1024.0 hPa SSO 8.7 km/h 19.3 km/h 36.6% 0.0 mm
11:09 19.2 °C 4.2 °C 1024.0 hPa SSO 8.7 km/h 19 km/h 37% 0.0 mm
11:14 19.2 °C 4.5 °C 1023.9 hPa SSO 9.2 km/h 19.3 km/h 37.9% 0.0 mm
11:19 19.2 °C 4.5 °C 1023.9 hPa SSO 9.5 km/h 19.3 km/h 37.9% 0.0 mm
11:24 19.3 °C 4.6 °C 1023.9 hPa SO 10 km/h 19.3 km/h 38% 0.0 mm
11:29 19.4 °C 4.6 °C 1023.9 hPa SO 10.3 km/h 19.3 km/h 37.7% 0.0 mm
11:34 19.5 °C 4.7 °C 1023.9 hPa SSO 10.1 km/h 17.7 km/h 37.8% 0.0 mm
11:39 19.7 °C 4.7 °C 1023.9 hPa SO 10 km/h 16.1 km/h 37.3% 0.0 mm
11:44 19.9 °C 4.8 °C 1023.9 hPa SO 9 km/h 16.7 km/h 37% 0.0 mm
11:49 20.1 °C 5 °C 1023.9 hPa SO 8.4 km/h 16.1 km/h 37% 0.0 mm
11:54 20.3 °C 5.1 °C 1023.9 hPa SO 7.4 km/h 14.8 km/h 37% 0.0 mm
11:59 20.5 °C 5.3 °C 1023.8 hPa SSO 6.9 km/h 14.5 km/h 37% 0.0 mm
12:04 20.8 °C 5.2 °C 1023.8 hPa SSO 6.9 km/h 13 km/h 36.1% 0.0 mm
12:09 20.9 °C 5.4 °C 1023.8 hPa SSO 6.9 km/h 12.9 km/h 36.3% 0.0 mm
12:14 20.9 °C 5.3 °C 1023.7 hPa SO 6.9 km/h 13.7 km/h 36% 0.0 mm
12:19 21 °C 5.4 °C 1023.7 hPa OSO 6.9 km/h 17.2 km/h 36% 0.0 mm
12:24 21.1 °C 5.4 °C 1023.7 hPa SO 7.8 km/h 17.7 km/h 36% 0.0 mm
12:29 21.3 °C 5.6 °C 1023.5 hPa OSO 8.4 km/h 14.8 km/h 35.9% 0.0 mm
12:34 21.4 °C 5.7 °C 1023.5 hPa OSO 7.2 km/h 14.5 km/h 36% 0.0 mm
12:39 21.7 °C 5.5 °C 1023.5 hPa SO 6.5 km/h 15.6 km/h 35% 0.0 mm
12:44 21.8 °C 5.5 °C 1023.3 hPa OSO 6.7 km/h 16.1 km/h 34.6% 0.0 mm
12:49 22 °C 5.3 °C 1023.3 hPa OSO 6.9 km/h 15.6 km/h 33.9% 0.0 mm
12:54 22.2 °C 5.1 °C 1023.3 hPa OSO 8.6 km/h 22.2 km/h 33% 0.0 mm
12:59 22.2 °C 5 °C 1023.1 hPa OSO 9.5 km/h 24.1 km/h 32.5% 0.0 mm
13:04 22.3 °C 5 °C 1023.1 hPa OSO 11.9 km/h 24.1 km/h 32.4% 0.0 mm
13:09 22.3 °C 5 °C 1023.1 hPa OSO 13 km/h 20.9 km/h 32.4% 0.0 mm
13:14 22.4 °C 5.3 °C 1023.0 hPa OSO 10.9 km/h 19.3 km/h 33% 0.0 mm
13:19 22.6 °C 5.4 °C 1023.0 hPa OSO 9.5 km/h 17.2 km/h 32.7% 0.0 mm
13:24 22.7 °C 5.2 °C 1023.0 hPa OSO 9 km/h 24.1 km/h 32.2% 0.0 mm
13:29 22.7 °C 5.2 °C 1022.8 hPa OSO 8.7 km/h 24.1 km/h 32% 0.0 mm
13:34 22.7 °C 5.2 °C 1022.8 hPa OSO 11.3 km/h 22.5 km/h 32% 0.0 mm
13:39 22.8 °C 5.2 °C 1022.8 hPa Oeste 13 km/h 22.5 km/h 32% 0.0 mm
13:44 22.9 °C 5.3 °C 1022.6 hPa OSO 11.9 km/h 22.5 km/h 32% 0.0 mm
13:49 23.1 °C 5.3 °C 1022.6 hPa Oeste 11.1 km/h 19.3 km/h 31.5% 0.0 mm
13:54 23.2 °C 5.1 °C 1022.6 hPa OSO 10.4 km/h 22.2 km/h 31% 0.0 mm
13:59 23.3 °C 5 °C 1022.5 hPa Oeste 10 km/h 29.6 km/h 30.5% 0.0 mm
14:04 23.4 °C 4.9 °C 1022.5 hPa Oeste 11.4 km/h 29 km/h 30% 0.0 mm
14:09 23.6 °C 5 °C 1022.5 hPa Oeste 12.2 km/h 27.8 km/h 30% 0.0 mm
14:14 23.5 °C 4.9 °C 1022.2 hPa Oeste 14.3 km/h 27.4 km/h 30% 0.0 mm
14:19 23.6 °C 5.4 °C 1022.2 hPa OSO 15.6 km/h 25.7 km/h 30.9% 0.0 mm
14:24 23.7 °C 5.6 °C 1022.2 hPa OSO 13.3 km/h 22.2 km/h 31% 0.0 mm
14:29 23.8 °C 5.7 °C 1022.1 hPa OSO 11.9 km/h 22.5 km/h 31% 0.0 mm
14:34 23.8 °C 5.7 °C 1022.1 hPa Oeste 11.9 km/h 25.1 km/h 31% 0.0 mm
14:39 23.8 °C 5.6 °C 1022.1 hPa OSO 11.9 km/h 25.9 km/h 31% 0.0 mm
14:44 23.8 °C 6.1 °C 1022.0 hPa SO 11.9 km/h 20.9 km/h 32% 0.0 mm
14:49 23.8 °C 5.8 °C 1022.0 hPa SSO 11.9 km/h 22.2 km/h 31.2% 0.0 mm
14:54 23.8 °C 5.8 °C 1022.0 hPa SO 10.8 km/h 22.5 km/h 31.2% 0.0 mm
14:59 23.8 °C 6.1 °C 1022.0 hPa SSO 10 km/h 19.3 km/h 32% 0.0 mm
15:04 23.8 °C 6.1 °C 1022.0 hPa SO 9.1 km/h 15.6 km/h 32% 0.0 mm
15:09 23.8 °C 6.1 °C 1022.0 hPa SO 8.7 km/h 16.1 km/h 32% 0.0 mm
15:14 23.8 °C 6.1 °C 1021.9 hPa SO 8.7 km/h 14.8 km/h 31.8% 0.0 mm
15:19 24 °C 5.9 °C 1021.9 hPa OSO 8.7 km/h 16.7 km/h 31.2% 0.0 mm
15:24 24 °C 5.4 °C 1022.0 hPa Oeste 9.2 km/h 16.1 km/h 30.1% 0.0 mm
15:29 23.9 °C 5.6 °C 1022.0 hPa OSO 9.5 km/h 17.2 km/h 30.8% 0.0 mm
15:34 23.9 °C 5.7 °C 1022.0 hPa SO 9.5 km/h 17.7 km/h 30.9% 0.0 mm
15:39 23.8 °C 5.7 °C 1022.1 hPa OSO 9.5 km/h 17.7 km/h 31% 0.0 mm
15:44 23.8 °C 5.8 °C 1022.1 hPa OSO 9.5 km/h 16.7 km/h 31.3% 0.0 mm
15:49 23.9 °C 6.2 °C 1022.1 hPa OSO 9.5 km/h 16.1 km/h 32% 0.0 mm
15:54 24 °C 6.2 °C 1022.2 hPa OSO 8.8 km/h 14.5 km/h 32% 0.0 mm
15:59 24.1 °C 6.4 °C 1022.2 hPa OSO 8.4 km/h 12.9 km/h 32% 0.0 mm
16:04 24.1 °C 6.4 °C 1022.2 hPa Oeste 7.4 km/h 19 km/h 32% 0.0 mm
16:09 24 °C 6.3 °C 1022.4 hPa Oeste 6.9 km/h 19.3 km/h 32% 0.0 mm
16:14 24 °C 6.5 °C 1022.4 hPa Oeste 9.9 km/h 19.3 km/h 32.5% 0.0 mm
16:19 24 °C 6.7 °C 1022.4 hPa Oeste 11.9 km/h 14.5 km/h 32.9% 0.0 mm
16:24 23.9 °C 6.6 °C 1022.5 hPa Oeste 9.9 km/h 18.5 km/h 32.9% 0.0 mm
16:29 23.9 °C 6.7 °C 1022.5 hPa Oeste 8.7 km/h 19.3 km/h 33% 0.0 mm
16:34 23.8 °C 6.6 °C 1022.5 hPa Oeste 9.2 km/h 16.1 km/h 33% 0.0 mm
16:39 23.8 °C 6.9 °C 1022.7 hPa OSO 9.5 km/h 16.1 km/h 33.8% 0.0 mm
16:44 23.7 °C 6.8 °C 1022.7 hPa Oeste 7.3 km/h 11.3 km/h 33.9% 0.0 mm
16:49 23.7 °C 6.8 °C 1022.7 hPa Oeste 5.8 km/h 11.3 km/h 33.9% 0.0 mm
16:54 23.6 °C 6.8 °C 1022.7 hPa OSO 5.8 km/h 11.3 km/h 34% 0.0 mm
16:59 23.5 °C 7.1 °C 1022.7 hPa OSO 5.8 km/h 9.7 km/h 35% 0.0 mm
17:04 23.3 °C 7 °C 1022.7 hPa OSO 5.3 km/h 11.1 km/h 35% 0.0 mm
17:09 23.2 °C 6.9 °C 1022.9 hPa Oeste 5 km/h 11.3 km/h 35% 0.0 mm
17:14 23.1 °C 6.8 °C 1022.9 hPa Oeste 4.8 km/h 9.3 km/h 35% 0.0 mm
17:19 23 °C 6.7 °C 1022.9 hPa Oeste 4.7 km/h 9.7 km/h 35% 0.0 mm
17:24 22.9 °C 6.7 °C 1023.1 hPa Oeste 4.8 km/h 10.3 km/h 35.2% 0.0 mm
17:29 22.8 °C 6.9 °C 1023.1 hPa OSO 5 km/h 11.3 km/h 35.9% 0.0 mm
17:34 22.7 °C 6.9 °C 1023.1 hPa OSO 4.8 km/h 11.3 km/h 36% 0.0 mm
17:39 22.6 °C 6.8 °C 1023.3 hPa OSO 4.7 km/h 8.4 km/h 36% 0.0 mm
17:44 22.6 °C 6.8 °C 1023.3 hPa OSO 3.7 km/h 8 km/h 36% 0.0 mm
17:49 22.4 °C 6.8 °C 1023.3 hPa North 3.2 km/h 15.6 km/h 36.5% 0.0 mm
17:54 21.8 °C 7.9 °C 1023.7 hPa NNE 5.6 km/h 16.7 km/h 41% 0.0 mm
17:59 20.7 °C 8.7 °C 1023.7 hPa NNE 6.9 km/h 16.7 km/h 46.2% 0.0 mm
18:04 19.8 °C 9 °C 1023.7 hPa NNE 9 km/h 16.1 km/h 49.6% 0.0 mm
18:09 19.2 °C 9.1 °C 1023.9 hPa NNE 10 km/h 16.1 km/h 51.9% 0.0 mm
18:14 18.6 °C 9 °C 1023.9 hPa NNE 9 km/h 15.6 km/h 53.7% 0.0 mm
18:19 18.2 °C 9 °C 1023.9 hPa NNE 8.4 km/h 17.2 km/h 55% 0.0 mm
18:24 17.8 °C 8.6 °C 1024.1 hPa NNE 9.4 km/h 17.7 km/h 54.8% 0.0 mm
18:29 17.6 °C 8.2 °C 1024.1 hPa NNE 10 km/h 16.1 km/h 54% 0.0 mm
18:34 17.3 °C 8 °C 1024.1 hPa NNE 10.2 km/h 22.2 km/h 54.1% 0.0 mm
18:39 17.2 °C 8.1 °C 1024.5 hPa NNE 10.3 km/h 22.5 km/h 55.3% 0.0 mm
18:44 17 °C 8.1 °C 1024.5 hPa NNE 10.8 km/h 20.9 km/h 56% 0.0 mm
18:49 16.8 °C 8.1 °C 1024.5 hPa NNE 11.1 km/h 20.9 km/h 56.6% 0.0 mm
18:54 16.6 °C 8.1 °C 1024.9 hPa NNE 11.8 km/h 19.3 km/h 57.2% 0.0 mm
18:59 16.4 °C 8.4 °C 1024.9 hPa NNE 12.2 km/h 17.7 km/h 58.9% 0.0 mm
19:04 16.3 °C 9.2 °C 1024.9 hPa NNE 9.8 km/h 20.4 km/h 63.1% 0.0 mm
19:09 16.1 °C 10.1 °C 1025.2 hPa NNE 8.4 km/h 22.2 km/h 67.6% 0.0 mm
19:14 15.9 °C 10.4 °C 1025.2 hPa NNE 10.8 km/h 22.5 km/h 69.6% 0.0 mm
19:19 15.8 °C 10.6 °C 1025.2 hPa NNE 12.2 km/h 22.2 km/h 70.9% 0.0 mm
19:24 15.8 °C 10.5 °C 1025.5 hPa NNE 12.7 km/h 22.5 km/h 71% 0.0 mm
19:29 15.7 °C 10.6 °C 1025.5 hPa NNE 13 km/h 19.3 km/h 71.7% 0.0 mm
19:34 15.7 °C 10.7 °C 1025.5 hPa NE 12.3 km/h 20.9 km/h 72% 0.0 mm
19:39 15.6 °C 10.8 °C 1026.0 hPa NE 11.9 km/h 20.9 km/h 73% 0.0 mm
19:44 15.4 °C 10.9 °C 1026.0 hPa ENE 10.7 km/h 19.3 km/h 74.3% 0.0 mm
19:49 15.3 °C 10.9 °C 1026.0 hPa NE 10 km/h 12.2 km/h 75.2% 0.0 mm
19:54 15.2 °C 11 °C 1026.2 hPa NE 8.5 km/h 14.8 km/h 76% 0.0 mm
19:59 15.2 °C 11 °C 1026.2 hPa NE 7.6 km/h 14.5 km/h 76% 0.0 mm
20:04 15.2 °C 10.9 °C 1026.2 hPa NE 8.1 km/h 12.9 km/h 75.6% 0.0 mm
20:09 15.2 °C 10.8 °C 1026.2 hPa NE 8.4 km/h 9.7 km/h 75% 0.0 mm
20:14 15.2 °C 10.6 °C 1026.2 hPa NE 6.7 km/h 10 km/h 74.2% 0.0 mm
20:19 15.2 °C 10.6 °C 1026.2 hPa NE 5.8 km/h 13 km/h 74% 0.0 mm
20:24 15.2 °C 10.6 °C 1026.2 hPa NE 6.9 km/h 13 km/h 74% 0.0 mm
20:29 15.2 °C 10.6 °C 1026.2 hPa NNE 7.6 km/h 12.9 km/h 74% 0.0 mm
20:34 15.2 °C 10.6 °C 1026.2 hPa North 5.7 km/h 8 km/h 74% 0.0 mm
20:39 15.1 °C 10.6 °C 1026.4 hPa NNO 4.6 km/h 6.4 km/h 74.9% 0.0 mm
20:44 14.9 °C 10.5 °C 1026.4 hPa NNO 3.8 km/h 7.4 km/h 75.2% 0.0 mm
20:49 14.8 °C 10.6 °C 1026.4 hPa North 3.2 km/h 8 km/h 76% 0.0 mm
20:54 14.7 °C 10.6 °C 1026.4 hPa NNO 3.6 km/h 8 km/h 76.4% 0.0 mm
20:59 14.6 °C 10.6 °C 1026.4 hPa NO 3.9 km/h 8.4 km/h 77% 0.0 mm
21:04 14.4 °C 10.5 °C 1026.4 hPa ONO 4.4 km/h 8 km/h 77% 0.0 mm
21:09 14.4 °C 10.4 °C 1026.6 hPa NO 4.6 km/h 8 km/h 77% 0.0 mm
21:14 14.3 °C 10.2 °C 1026.6 hPa NO 4.7 km/h 8 km/h 76.1% 0.0 mm
21:19 14.3 °C 10.1 °C 1026.6 hPa NO 4.7 km/h 8 km/h 76% 0.0 mm
21:24 14.2 °C 10 °C 1026.9 hPa NO 4.1 km/h 8 km/h 76.1% 0.0 mm
21:28 14.2 °C 10.2 °C 1026.9 hPa NO 3.9 km/h 8 km/h 77% 0.0 mm
21:33 14.1 °C 10 °C 1026.9 hPa NNO 3.2 km/h 5.8 km/h 76.5% 0.0 mm
21:39 14.1 °C 9.9 °C 1027.1 hPa NNO 3.2 km/h 5.6 km/h 76% 0.0 mm
21:44 14.1 °C 9.9 °C 1027.1 hPa NNO 3 km/h 5.6 km/h 76% 0.0 mm
21:49 14.2 °C 10 °C 1027.1 hPa NNO 2.9 km/h   76% 0.0 mm
21:54 14.2 °C 10 °C 1027.1 hPa NNO 1.2 km/h   76% 0.0 mm
21:59 14.2 °C 10 °C 1027.1 hPa Calm   3.9 km/h 76% 0.0 mm
22:04 14.2 °C 10 °C 1027.1 hPa Calm   3.2 km/h 76% 0.0 mm
22:09 14.2 °C 10 °C 1027.3 hPa Calm   5 km/h 76% 0.0 mm
22:14 14.2 °C 10 °C 1027.3 hPa NNO 1.4 km/h 5.6 km/h 76% 0.0 mm
22:19 14.2 °C 10 °C 1027.3 hPa NNO 2.2 km/h 4.8 km/h 76% 0.0 mm
22:24 14.1 °C 10 °C 1027.5 hPa NNO 2.2 km/h 3.9 km/h 76% 0.0 mm
22:29 14 °C 9.8 °C 1027.5 hPa NNO 2.2 km/h 3.7 km/h 76% 0.0 mm
22:34 13.9 °C 9.9 °C 1027.5 hPa NNO 0.9 km/h 3.7 km/h 76.9% 0.0 mm
22:39 13.9 °C 9.9 °C 1027.6 hPa Calm   3.2 km/h 77% 0.0 mm
22:44 13.9 °C 9.9 °C 1027.6 hPa Calm   1.6 km/h 77% 0.0 mm
22:49 13.9 °C 9.9 °C 1027.6 hPa Calm   2.3 km/h 77% 0.0 mm
22:54 13.9 °C 9.8 °C 1027.8 hPa Calm   3.7 km/h 76.4% 0.0 mm
22:59 13.8 °C 9.8 °C 1027.8 hPa Calm   3.2 km/h 77% 0.0 mm
23:04 13.7 °C 9.7 °C 1027.8 hPa Calm     77% 0.0 mm
23:09 13.6 °C 9.6 °C 1027.9 hPa Calm     77% 0.0 mm
23:14 13.4 °C 9.6 °C 1027.9 hPa Calm     77.7% 0.0 mm
23:19 13.4 °C 9.6 °C 1027.9 hPa Calm     78% 0.0 mm
23:24 13.3 °C 9.5 °C 1028.0 hPa Calm     78% 0.0 mm
23:29 13.2 °C 9.4 °C 1028.0 hPa Calm   6.4 km/h 78% 0.0 mm
23:34 13 °C 9.2 °C 1028.0 hPa NNO 1.3 km/h 8 km/h 78% 0.0 mm
23:39 12.8 °C 9 °C 1028.1 hPa NNO 2.2 km/h 8 km/h 78% 0.0 mm
23:44 12.6 °C 8.9 °C 1028.1 hPa NNO 0.9 km/h 3.9 km/h 78% 0.0 mm
23:49 12.4 °C 8.7 °C 1028.1 hPa Calm   5.6 km/h 78% 0.0 mm
23:54 12.3 °C 8.5 °C 1028.2 hPa NNO 1.7 km/h 4.8 km/h 78% 0.0 mm
23:59 12.2 °C 8.5 °C 1028.2 hPa NNO 2.9 km/h 5.8 km/h 78% 0.0 mm
Murcia-Puente Tocinos, España
Compliments of Weather Underground - 3 mb

La estación de MeteoMurcia.com, publica sus datos en los siguientes proyectos:

Weather Underground PWS IMURCIAP2 Meteoclimatic www.awekas.at

W3Counter
Web Analytics